sensor_id;sensor_type;location;lat;lon;timestamp;P1;durP1;ratioP1;P2;durP2;ratioP2
67181;SDS011;54114;53.524;49.396;2022-09-27T00:01:03;2.47;;;0.90;;
67181;SDS011;54114;53.524;49.396;2022-09-27T00:03:36;1.10;;;0.70;;
67181;SDS011;54114;53.524;49.396;2022-09-27T00:06:05;1.35;;;0.98;;
67181;SDS011;54114;53.524;49.396;2022-09-27T00:08:41;1.00;;;0.90;;
67181;SDS011;54114;53.524;49.396;2022-09-27T00:11:14;0.95;;;0.75;;
67181;SDS011;54114;53.524;49.396;2022-09-27T00:13:53;0.95;;;0.77;;
67181;SDS011;54114;53.524;49.396;2022-09-27T00:16:23;1.52;;;1.00;;
67181;SDS011;54114;53.524;49.396;2022-09-27T00:19:02;0.88;;;0.60;;
67181;SDS011;54114;53.524;49.396;2022-09-27T00:21:31;2.30;;;0.90;;
67181;SDS011;54114;53.524;49.396;2022-09-27T00:23:58;0.70;;;0.60;;
67181;SDS011;54114;53.524;49.396;2022-09-27T00:26:25;4.53;;;0.70;;
67181;SDS011;54114;53.524;49.396;2022-09-27T00:28:53;0.90;;;0.70;;
67181;SDS011;54114;53.524;49.396;2022-09-27T00:31:27;2.10;;;0.80;;
67181;SDS011;54114;53.524;49.396;2022-09-27T00:33:56;1.58;;;0.80;;
67181;SDS011;54114;53.524;49.396;2022-09-27T00:36:26;2.00;;;0.85;;
67181;SDS011;54114;53.524;49.396;2022-09-27T00:38:53;2.00;;;0.77;;
67181;SDS011;54114;53.524;49.396;2022-09-27T00:41:22;1.50;;;1.12;;
67181;SDS011;54114;53.524;49.396;2022-09-27T00:43:55;1.10;;;0.70;;
67181;SDS011;54114;53.524;49.396;2022-09-27T00:46:57;3.30;;;0.80;;
67181;SDS011;54114;53.524;49.396;2022-09-27T00:49:51;1.73;;;0.65;;
67181;SDS011;54114;53.524;49.396;2022-09-27T00:52:46;1.15;;;0.70;;
67181;SDS011;54114;53.524;49.396;2022-09-27T00:55:39;1.58;;;0.85;;
67181;SDS011;54114;53.524;49.396;2022-09-27T00:58:10;0.90;;;0.68;;
67181;SDS011;54114;53.524;49.396;2022-09-27T01:00:41;1.45;;;0.80;;
67181;SDS011;54114;53.524;49.396;2022-09-27T01:03:16;1.02;;;0.80;;
67181;SDS011;54114;53.524;49.396;2022-09-27T01:06:23;1.37;;;0.90;;
67181;SDS011;54114;53.524;49.396;2022-09-27T01:08:49;4.30;;;0.90;;
67181;SDS011;54114;53.524;49.396;2022-09-27T01:17:25;1.12;;;0.90;;
67181;SDS011;54114;53.524;49.396;2022-09-27T01:20:19;1.48;;;0.90;;
67181;SDS011;54114;53.524;49.396;2022-09-27T01:29:10;4.93;;;0.90;;
67181;SDS011;54114;53.524;49.396;2022-09-27T01:32:05;0.70;;;0.70;;
67181;SDS011;54114;53.524;49.396;2022-09-27T01:37:34;3.90;;;0.93;;
67181;SDS011;54114;53.524;49.396;2022-09-27T01:40:19;3.25;;;1.20;;
67181;SDS011;54114;53.524;49.396;2022-09-27T01:43:21;0.88;;;0.85;;
67181;SDS011;54114;53.524;49.396;2022-09-27T01:46:02;8.75;;;1.30;;
67181;SDS011;54114;53.524;49.396;2022-09-27T01:48:42;1.60;;;0.90;;
67181;SDS011;54114;53.524;49.396;2022-09-27T01:51:15;1.60;;;0.82;;
67181;SDS011;54114;53.524;49.396;2022-09-27T01:54:00;3.53;;;1.02;;
67181;SDS011;54114;53.524;49.396;2022-09-27T01:56:33;1.30;;;1.00;;
67181;SDS011;54114;53.524;49.396;2022-09-27T02:01:54;1.85;;;1.02;;
67181;SDS011;54114;53.524;49.396;2022-09-27T02:04:29;0.77;;;0.77;;
67181;SDS011;54114;53.524;49.396;2022-09-27T02:07:00;1.05;;;0.95;;
67181;SDS011;54114;53.524;49.396;2022-09-27T02:09:48;1.00;;;0.90;;
67181;SDS011;54114;53.524;49.396;2022-09-27T02:12:22;1.87;;;0.98;;
67181;SDS011;54114;53.524;49.396;2022-09-27T02:15:14;4.20;;;1.10;;
67181;SDS011;54114;53.524;49.396;2022-09-27T02:20:43;1.35;;;1.20;;
67181;SDS011;54114;53.524;49.396;2022-09-27T02:26:17;2.25;;;1.20;;
67181;SDS011;54114;53.524;49.396;2022-09-27T02:28:54;3.87;;;0.90;;
67181;SDS011;54114;53.524;49.396;2022-09-27T02:31:27;3.00;;;1.10;;
67181;SDS011;54114;53.524;49.396;2022-09-27T02:34:02;2.03;;;1.08;;
67181;SDS011;54114;53.524;49.396;2022-09-27T02:36:47;3.72;;;0.90;;
67181;SDS011;54114;53.524;49.396;2022-09-27T02:39:16;3.30;;;1.08;;
67181;SDS011;54114;53.524;49.396;2022-09-27T02:41:42;2.08;;;1.00;;
67181;SDS011;54114;53.524;49.396;2022-09-27T02:44:10;6.22;;;0.95;;
67181;SDS011;54114;53.524;49.396;2022-09-27T02:50:22;1.73;;;1.00;;
67181;SDS011;54114;53.524;49.396;2022-09-27T02:52:58;3.08;;;1.20;;
67181;SDS011;54114;53.524;49.396;2022-09-27T02:55:48;2.05;;;1.15;;
67181;SDS011;54114;53.524;49.396;2022-09-27T03:07:23;3.97;;;1.33;;
67181;SDS011;54114;53.524;49.396;2022-09-27T03:09:52;2.10;;;1.30;;
67181;SDS011;54114;53.524;49.396;2022-09-27T03:12:19;4.43;;;1.50;;
67181;SDS011;54114;53.524;49.396;2022-09-27T03:14:50;1.95;;;1.15;;
67181;SDS011;54114;53.524;49.396;2022-09-27T03:17:23;4.32;;;1.10;;
67181;SDS011;54114;53.524;49.396;2022-09-27T03:19:50;7.97;;;1.48;;
67181;SDS011;54114;53.524;49.396;2022-09-27T03:22:17;13.23;;;2.87;;
67181;SDS011;54114;53.524;49.396;2022-09-27T03:24:44;1.92;;;1.33;;
67181;SDS011;54114;53.524;49.396;2022-09-27T03:27:11;5.50;;;1.48;;
67181;SDS011;54114;53.524;49.396;2022-09-27T03:29:37;1.70;;;1.30;;
67181;SDS011;54114;53.524;49.396;2022-09-27T03:32:04;5.25;;;1.58;;
67181;SDS011;54114;53.524;49.396;2022-09-27T03:34:31;1.40;;;1.30;;
67181;SDS011;54114;53.524;49.396;2022-09-27T03:36:57;1.58;;;1.33;;
67181;SDS011;54114;53.524;49.396;2022-09-27T03:39:24;1.62;;;1.40;;
67181;SDS011;54114;53.524;49.396;2022-09-27T03:41:51;5.78;;;1.62;;
67181;SDS011;54114;53.524;49.396;2022-09-27T03:44:18;2.62;;;1.70;;
67181;SDS011;54114;53.524;49.396;2022-09-27T03:46:44;1.92;;;1.35;;
67181;SDS011;54114;53.524;49.396;2022-09-27T03:49:11;2.72;;;1.62;;
67181;SDS011;54114;53.524;49.396;2022-09-27T03:51:38;3.62;;;1.90;;
67181;SDS011;54114;53.524;49.396;2022-09-27T03:54:05;2.15;;;1.67;;
67181;SDS011;54114;53.524;49.396;2022-09-27T03:56:31;5.75;;;2.05;;
67181;SDS011;54114;53.524;49.396;2022-09-27T03:58:58;4.60;;;1.60;;
67181;SDS011;54114;53.524;49.396;2022-09-27T04:01:25;4.28;;;2.03;;
67181;SDS011;54114;53.524;49.396;2022-09-27T04:03:52;5.28;;;2.30;;
67181;SDS011;54114;53.524;49.396;2022-09-27T04:06:19;2.30;;;1.90;;
67181;SDS011;54114;53.524;49.396;2022-09-27T04:08:47;2.28;;;1.67;;
67181;SDS011;54114;53.524;49.396;2022-09-27T04:11:14;2.58;;;1.83;;
67181;SDS011;54114;53.524;49.396;2022-09-27T04:13:41;6.15;;;1.80;;
67181;SDS011;54114;53.524;49.396;2022-09-27T04:16:08;2.47;;;1.60;;
67181;SDS011;54114;53.524;49.396;2022-09-27T04:18:35;2.55;;;1.80;;
67181;SDS011;54114;53.524;49.396;2022-09-27T04:21:02;9.52;;;1.75;;
67181;SDS011;54114;53.524;49.396;2022-09-27T04:23:28;3.60;;;1.80;;
67181;SDS011;54114;53.524;49.396;2022-09-27T04:25:55;4.95;;;1.73;;
67181;SDS011;54114;53.524;49.396;2022-09-27T04:28:22;2.25;;;1.58;;
67181;SDS011;54114;53.524;49.396;2022-09-27T04:30:49;5.32;;;1.90;;
67181;SDS011;54114;53.524;49.396;2022-09-27T04:33:15;5.40;;;1.80;;
67181;SDS011;54114;53.524;49.396;2022-09-27T04:35:42;2.42;;;1.85;;
67181;SDS011;54114;53.524;49.396;2022-09-27T04:38:27;3.25;;;1.70;;
67181;SDS011;54114;53.524;49.396;2022-09-27T04:40:54;6.43;;;1.92;;
67181;SDS011;54114;53.524;49.396;2022-09-27T04:43:21;6.35;;;1.95;;
67181;SDS011;54114;53.524;49.396;2022-09-27T04:45:48;3.85;;;2.12;;
67181;SDS011;54114;53.524;49.396;2022-09-27T04:48:14;3.72;;;1.90;;
67181;SDS011;54114;53.524;49.396;2022-09-27T04:50:41;7.20;;;2.00;;
67181;SDS011;54114;53.524;49.396;2022-09-27T04:53:11;8.05;;;2.22;;
67181;SDS011;54114;53.524;49.396;2022-09-27T04:55:39;3.22;;;2.10;;
67181;SDS011;54114;53.524;49.396;2022-09-27T04:58:11;2.15;;;1.85;;
67181;SDS011;54114;53.524;49.396;2022-09-27T05:00:38;2.85;;;2.03;;
67181;SDS011;54114;53.524;49.396;2022-09-27T05:03:09;4.75;;;2.30;;
67181;SDS011;54114;53.524;49.396;2022-09-27T05:05:36;11.02;;;2.62;;
67181;SDS011;54114;53.524;49.396;2022-09-27T05:08:03;4.20;;;2.72;;
67181;SDS011;54114;53.524;49.396;2022-09-27T05:10:29;7.62;;;2.47;;
67181;SDS011;54114;53.524;49.396;2022-09-27T05:12:56;3.47;;;2.58;;
67181;SDS011;54114;53.524;49.396;2022-09-27T05:15:22;5.35;;;2.20;;
67181;SDS011;54114;53.524;49.396;2022-09-27T05:17:50;5.40;;;2.30;;
67181;SDS011;54114;53.524;49.396;2022-09-27T05:20:17;6.07;;;2.42;;
67181;SDS011;54114;53.524;49.396;2022-09-27T05:22:44;6.87;;;2.95;;
67181;SDS011;54114;53.524;49.396;2022-09-27T05:25:11;5.30;;;2.42;;
67181;SDS011;54114;53.524;49.396;2022-09-27T05:27:38;7.37;;;4.22;;
67181;SDS011;54114;53.524;49.396;2022-09-27T05:30:05;5.70;;;3.20;;
67181;SDS011;54114;53.524;49.396;2022-09-27T05:32:33;5.00;;;3.05;;
67181;SDS011;54114;53.524;49.396;2022-09-27T05:35:00;5.10;;;2.72;;
67181;SDS011;54114;53.524;49.396;2022-09-27T05:37:27;7.70;;;2.42;;
67181;SDS011;54114;53.524;49.396;2022-09-27T05:39:58;4.47;;;2.40;;
67181;SDS011;54114;53.524;49.396;2022-09-27T05:42:25;3.17;;;2.00;;
67181;SDS011;54114;53.524;49.396;2022-09-27T05:44:52;3.97;;;2.30;;
67181;SDS011;54114;53.524;49.396;2022-09-27T05:47:18;3.60;;;2.22;;
67181;SDS011;54114;53.524;49.396;2022-09-27T05:49:45;4.43;;;2.15;;
67181;SDS011;54114;53.524;49.396;2022-09-27T05:52:12;9.63;;;2.90;;
67181;SDS011;54114;53.524;49.396;2022-09-27T05:54:38;14.10;;;4.45;;
67181;SDS011;54114;53.524;49.396;2022-09-27T05:57:05;4.43;;;2.50;;
67181;SDS011;54114;53.524;49.396;2022-09-27T05:59:32;4.32;;;2.85;;
67181;SDS011;54114;53.524;49.396;2022-09-27T06:01:59;9.38;;;2.50;;
67181;SDS011;54114;53.524;49.396;2022-09-27T06:04:26;6.18;;;2.50;;
67181;SDS011;54114;53.524;49.396;2022-09-27T06:06:52;5.35;;;2.60;;
67181;SDS011;54114;53.524;49.396;2022-09-27T06:09:19;3.75;;;2.30;;
67181;SDS011;54114;53.524;49.396;2022-09-27T06:11:46;4.30;;;2.15;;
67181;SDS011;54114;53.524;49.396;2022-09-27T06:14:13;2.58;;;2.17;;
67181;SDS011;54114;53.524;49.396;2022-09-27T06:16:39;14.10;;;2.15;;
67181;SDS011;54114;53.524;49.396;2022-09-27T06:19:06;2.20;;;1.67;;
67181;SDS011;54114;53.524;49.396;2022-09-27T06:21:33;3.92;;;1.95;;
67181;SDS011;54114;53.524;49.396;2022-09-27T06:24:00;5.20;;;2.30;;
67181;SDS011;54114;53.524;49.396;2022-09-27T06:26:27;6.07;;;2.00;;
67181;SDS011;54114;53.524;49.396;2022-09-27T06:28:54;4.05;;;1.55;;
67181;SDS011;54114;53.524;49.396;2022-09-27T06:31:21;2.53;;;1.48;;
67181;SDS011;54114;53.524;49.396;2022-09-27T06:33:48;1.45;;;1.35;;
67181;SDS011;54114;53.524;49.396;2022-09-27T06:36:15;1.90;;;1.25;;
67181;SDS011;54114;53.524;49.396;2022-09-27T06:38:42;3.58;;;1.83;;
67181;SDS011;54114;53.524;49.396;2022-09-27T06:41:11;1.27;;;0.88;;
67181;SDS011;54114;53.524;49.396;2022-09-27T06:43:39;1.95;;;1.30;;
67181;SDS011;54114;53.524;49.396;2022-09-27T06:46:06;9.90;;;1.73;;
67181;SDS011;54114;53.524;49.396;2022-09-27T06:48:33;2.37;;;1.33;;
67181;SDS011;54114;53.524;49.396;2022-09-27T06:51:04;2.90;;;1.33;;
67181;SDS011;54114;53.524;49.396;2022-09-27T06:53:30;2.30;;;1.40;;
67181;SDS011;54114;53.524;49.396;2022-09-27T06:56:00;2.40;;;1.37;;
67181;SDS011;54114;53.524;49.396;2022-09-27T06:58:27;2.33;;;1.42;;
67181;SDS011;54114;53.524;49.396;2022-09-27T07:01:13;3.87;;;1.20;;
67181;SDS011;54114;53.524;49.396;2022-09-27T07:03:39;2.95;;;1.60;;
67181;SDS011;54114;53.524;49.396;2022-09-27T07:06:11;2.55;;;1.17;;
67181;SDS011;54114;53.524;49.396;2022-09-27T07:08:51;1.80;;;1.20;;
67181;SDS011;54114;53.524;49.396;2022-09-27T07:11:19;1.75;;;1.12;;
67181;SDS011;54114;53.524;49.396;2022-09-27T07:13:47;1.48;;;1.00;;
67181;SDS011;54114;53.524;49.396;2022-09-27T07:16:16;2.75;;;1.33;;
67181;SDS011;54114;53.524;49.396;2022-09-27T07:18:43;2.35;;;1.20;;
67181;SDS011;54114;53.524;49.396;2022-09-27T07:21:10;1.75;;;1.17;;
67181;SDS011;54114;53.524;49.396;2022-09-27T07:23:36;2.95;;;1.20;;
67181;SDS011;54114;53.524;49.396;2022-09-27T07:26:03;1.02;;;0.80;;
67181;SDS011;54114;53.524;49.396;2022-09-27T07:28:31;1.77;;;1.27;;
67181;SDS011;54114;53.524;49.396;2022-09-27T07:30:59;4.05;;;1.55;;
67181;SDS011;54114;53.524;49.396;2022-09-27T07:33:27;5.43;;;0.98;;
67181;SDS011;54114;53.524;49.396;2022-09-27T07:35:54;3.00;;;1.30;;
67181;SDS011;54114;53.524;49.396;2022-09-27T07:38:21;2.42;;;1.30;;
67181;SDS011;54114;53.524;49.396;2022-09-27T07:40:48;2.17;;;1.00;;
67181;SDS011;54114;53.524;49.396;2022-09-27T07:43:14;1.50;;;1.20;;
67181;SDS011;54114;53.524;49.396;2022-09-27T07:45:42;1.95;;;1.10;;
67181;SDS011;54114;53.524;49.396;2022-09-27T07:48:10;1.20;;;1.10;;
67181;SDS011;54114;53.524;49.396;2022-09-27T07:50:39;3.17;;;1.00;;
67181;SDS011;54114;53.524;49.396;2022-09-27T07:53:06;3.45;;;1.10;;
67181;SDS011;54114;53.524;49.396;2022-09-27T07:55:36;4.60;;;1.20;;
67181;SDS011;54114;53.524;49.396;2022-09-27T07:58:04;4.60;;;1.55;;
67181;SDS011;54114;53.524;49.396;2022-09-27T08:00:36;2.35;;;1.37;;
67181;SDS011;54114;53.524;49.396;2022-09-27T08:03:05;1.40;;;0.85;;
67181;SDS011;54114;53.524;49.396;2022-09-27T08:05:35;1.20;;;1.10;;
67181;SDS011;54114;53.524;49.396;2022-09-27T08:08:03;3.90;;;1.17;;
67181;SDS011;54114;53.524;49.396;2022-09-27T08:10:30;1.00;;;0.90;;
67181;SDS011;54114;53.524;49.396;2022-09-27T08:12:58;1.35;;;0.95;;
67181;SDS011;54114;53.524;49.396;2022-09-27T08:15:30;3.00;;;1.45;;
67181;SDS011;54114;53.524;49.396;2022-09-27T08:18:00;1.23;;;1.10;;
67181;SDS011;54114;53.524;49.396;2022-09-27T08:20:27;1.00;;;0.90;;
67181;SDS011;54114;53.524;49.396;2022-09-27T08:22:53;1.30;;;0.98;;
67181;SDS011;54114;53.524;49.396;2022-09-27T08:25:20;0.82;;;0.80;;
67181;SDS011;54114;53.524;49.396;2022-09-27T08:27:58;2.10;;;1.00;;
67181;SDS011;54114;53.524;49.396;2022-09-27T08:30:29;0.52;;;0.50;;
67181;SDS011;54114;53.524;49.396;2022-09-27T08:32:57;1.40;;;0.85;;
67181;SDS011;54114;53.524;49.396;2022-09-27T08:35:25;4.32;;;0.80;;
67181;SDS011;54114;53.524;49.396;2022-09-27T08:37:53;1.83;;;0.80;;
67181;SDS011;54114;53.524;49.396;2022-09-27T08:40:23;2.55;;;1.10;;
67181;SDS011;54114;53.524;49.396;2022-09-27T08:43:04;1.25;;;0.90;;
67181;SDS011;54114;53.524;49.396;2022-09-27T08:45:53;1.80;;;0.90;;
67181;SDS011;54114;53.524;49.396;2022-09-27T08:48:30;1.00;;;0.80;;
67181;SDS011;54114;53.524;49.396;2022-09-27T08:50:59;1.80;;;0.70;;
67181;SDS011;54114;53.524;49.396;2022-09-27T08:53:39;3.83;;;1.08;;
67181;SDS011;54114;53.524;49.396;2022-09-27T08:56:16;0.88;;;0.60;;
67181;SDS011;54114;53.524;49.396;2022-09-27T08:58:49;1.42;;;0.70;;
67181;SDS011;54114;53.524;49.396;2022-09-27T09:01:29;1.05;;;0.50;;
67181;SDS011;54114;53.524;49.396;2022-09-27T09:03:58;0.80;;;0.80;;
67181;SDS011;54114;53.524;49.396;2022-09-27T09:15:14;4.00;;;1.07;;
67181;SDS011;54114;53.524;49.396;2022-09-27T09:18:31;1.58;;;0.70;;
67181;SDS011;54114;53.524;49.396;2022-09-27T09:21:33;1.23;;;0.80;;
67181;SDS011;54114;53.524;49.396;2022-09-27T09:27:29;2.05;;;0.93;;
67181;SDS011;54114;53.524;49.396;2022-09-27T09:30:22;0.50;;;0.50;;
67181;SDS011;54114;53.524;49.396;2022-09-27T09:39:11;1.00;;;0.70;;
67181;SDS011;54114;53.524;49.396;2022-09-27T09:44:46;6.18;;;1.10;;
67181;SDS011;54114;53.524;49.396;2022-09-27T09:47:25;5.32;;;0.85;;
67181;SDS011;54114;53.524;49.396;2022-09-27T09:50:15;0.50;;;0.50;;
67181;SDS011;54114;53.524;49.396;2022-09-27T09:52:48;0.90;;;0.60;;
67181;SDS011;54114;53.524;49.396;2022-09-27T09:55:25;0.95;;;0.60;;
67181;SDS011;54114;53.524;49.396;2022-09-27T10:00:24;0.90;;;0.70;;
67181;SDS011;54114;53.524;49.396;2022-09-27T10:02:52;0.80;;;0.73;;
67181;SDS011;54114;53.524;49.396;2022-09-27T10:05:21;3.30;;;0.80;;
67181;SDS011;54114;53.524;49.396;2022-09-27T10:07:50;3.55;;;0.60;;
67181;SDS011;54114;53.524;49.396;2022-09-27T10:10:22;1.65;;;0.50;;
67181;SDS011;54114;53.524;49.396;2022-09-27T10:12:49;0.93;;;0.68;;
67181;SDS011;54114;53.524;49.396;2022-09-27T10:15:20;2.15;;;0.70;;
67181;SDS011;54114;53.524;49.396;2022-09-27T10:17:53;0.62;;;0.52;;
67181;SDS011;54114;53.524;49.396;2022-09-27T10:20:35;0.73;;;0.65;;
67181;SDS011;54114;53.524;49.396;2022-09-27T10:23:14;1.30;;;0.67;;
67181;SDS011;54114;53.524;49.396;2022-09-27T10:25:58;0.95;;;0.65;;
67181;SDS011;54114;53.524;49.396;2022-09-27T10:28:29;2.85;;;0.60;;
67181;SDS011;54114;53.524;49.396;2022-09-27T10:31:11;0.85;;;0.60;;
67181;SDS011;54114;53.524;49.396;2022-09-27T10:33:53;1.45;;;0.80;;
67181;SDS011;54114;53.524;49.396;2022-09-27T10:36:23;1.10;;;0.40;;
67181;SDS011;54114;53.524;49.396;2022-09-27T10:38:56;1.48;;;0.75;;
67181;SDS011;54114;53.524;49.396;2022-09-27T10:41:39;1.52;;;0.60;;
67181;SDS011;54114;53.524;49.396;2022-09-27T10:46:45;0.90;;;0.88;;
67181;SDS011;54114;53.524;49.396;2022-09-27T10:52:02;1.52;;;0.60;;
67181;SDS011;54114;53.524;49.396;2022-09-27T10:54:56;0.75;;;0.75;;
67181;SDS011;54114;53.524;49.396;2022-09-27T10:57:39;1.17;;;0.70;;
67181;SDS011;54114;53.524;49.396;2022-09-27T11:00:07;1.87;;;0.50;;
67181;SDS011;54114;53.524;49.396;2022-09-27T11:02:51;1.90;;;0.67;;
67181;SDS011;54114;53.524;49.396;2022-09-27T11:08:19;1.08;;;0.55;;
67181;SDS011;54114;53.524;49.396;2022-09-27T11:10:42;0.93;;;0.70;;
67181;SDS011;54114;53.524;49.396;2022-09-27T11:30:22;0.40;;;0.40;;
67181;SDS011;54114;53.524;49.396;2022-09-27T11:35:33;0.75;;;0.65;;
67181;SDS011;54114;53.524;49.396;2022-09-27T11:38:52;0.65;;;0.50;;
67181;SDS011;54114;53.524;49.396;2022-09-27T11:41:39;4.20;;;0.90;;
67181;SDS011;54114;53.524;49.396;2022-09-27T11:44:35;1.30;;;0.80;;
67181;SDS011;54114;53.524;49.396;2022-09-27T11:53:35;0.90;;;0.60;;
67181;SDS011;54114;53.524;49.396;2022-09-27T12:02:21;0.40;;;0.40;;
67181;SDS011;54114;53.524;49.396;2022-09-27T12:10:38;0.40;;;0.40;;
67181;SDS011;54114;53.524;49.396;2022-09-27T12:13:11;0.77;;;0.60;;
67181;SDS011;54114;53.524;49.396;2022-09-27T12:15:41;2.37;;;0.80;;
67181;SDS011;54114;53.524;49.396;2022-09-27T12:18:30;0.57;;;0.55;;
67181;SDS011;54114;53.524;49.396;2022-09-27T12:21:05;4.10;;;1.23;;
67181;SDS011;54114;53.524;49.396;2022-09-27T12:28:57;0.75;;;0.60;;
67181;SDS011;54114;53.524;49.396;2022-09-27T12:31:32;2.58;;;0.73;;
67181;SDS011;54114;53.524;49.396;2022-09-27T12:34:36;0.45;;;0.30;;
67181;SDS011;54114;53.524;49.396;2022-09-27T12:37:43;0.82;;;0.50;;
67181;SDS011;54114;53.524;49.396;2022-09-27T12:40:37;1.50;;;0.60;;
67181;SDS011;54114;53.524;49.396;2022-09-27T12:43:13;0.55;;;0.40;;
67181;SDS011;54114;53.524;49.396;2022-09-27T12:51:35;3.03;;;0.82;;
67181;SDS011;54114;53.524;49.396;2022-09-27T12:54:37;0.90;;;0.65;;
67181;SDS011;54114;53.524;49.396;2022-09-27T13:00:22;0.70;;;0.50;;
67181;SDS011;54114;53.524;49.396;2022-09-27T13:03:06;1.02;;;0.60;;
67181;SDS011;54114;53.524;49.396;2022-09-27T13:11:48;4.40;;;0.70;;
67181;SDS011;54114;53.524;49.396;2022-09-27T13:14:25;0.45;;;0.40;;
67181;SDS011;54114;53.524;49.396;2022-09-27T13:16:57;4.32;;;0.70;;
67181;SDS011;54114;53.524;49.396;2022-09-27T13:19:38;2.15;;;1.42;;
67181;SDS011;54114;53.524;49.396;2022-09-27T13:24:53;1.00;;;0.50;;
67181;SDS011;54114;53.524;49.396;2022-09-27T13:33:10;1.70;;;0.50;;
67181;SDS011;54114;53.524;49.396;2022-09-27T13:35:38;2.20;;;0.70;;
67181;SDS011;54114;53.524;49.396;2022-09-27T13:38:17;2.90;;;1.10;;
67181;SDS011;54114;53.524;49.396;2022-09-27T13:40:49;8.27;;;1.40;;
67181;SDS011;54114;53.524;49.396;2022-09-27T13:43:41;4.25;;;1.30;;
67181;SDS011;54114;53.524;49.396;2022-09-27T13:46:29;3.20;;;1.00;;
67181;SDS011;54114;53.524;49.396;2022-09-27T13:48:58;1.17;;;0.73;;
67181;SDS011;54114;53.524;49.396;2022-09-27T13:51:52;0.70;;;0.50;;
67181;SDS011;54114;53.524;49.396;2022-09-27T13:56:59;12.43;;;2.92;;
67181;SDS011;54114;53.524;49.396;2022-09-27T14:05:02;1.92;;;0.93;;
67181;SDS011;54114;53.524;49.396;2022-09-27T14:07:39;5.60;;;0.80;;
67181;SDS011;54114;53.524;49.396;2022-09-27T14:10:16;1.45;;;0.75;;
67181;SDS011;54114;53.524;49.396;2022-09-27T14:12:47;2.85;;;0.70;;
67181;SDS011;54114;53.524;49.396;2022-09-27T14:15:18;6.20;;;1.17;;
67181;SDS011;54114;53.524;49.396;2022-09-27T14:17:54;1.20;;;0.60;;
67181;SDS011;54114;53.524;49.396;2022-09-27T14:20:36;5.78;;;0.93;;
67181;SDS011;54114;53.524;49.396;2022-09-27T14:23:11;2.12;;;0.82;;
67181;SDS011;54114;53.524;49.396;2022-09-27T14:25:51;4.70;;;0.68;;
67181;SDS011;54114;53.524;49.396;2022-09-27T14:28:20;4.85;;;0.70;;
67181;SDS011;54114;53.524;49.396;2022-09-27T14:31:15;5.37;;;1.37;;
67181;SDS011;54114;53.524;49.396;2022-09-27T14:33:47;3.17;;;1.10;;
67181;SDS011;54114;53.524;49.396;2022-09-27T14:39:51;2.28;;;0.80;;
67181;SDS011;54114;53.524;49.396;2022-09-27T14:42:20;0.50;;;0.50;;
67181;SDS011;54114;53.524;49.396;2022-09-27T14:44:49;3.15;;;0.65;;
67181;SDS011;54114;53.524;49.396;2022-09-27T14:47:18;1.67;;;0.65;;
67181;SDS011;54114;53.524;49.396;2022-09-27T14:49:57;3.08;;;1.17;;
67181;SDS011;54114;53.524;49.396;2022-09-27T14:52:30;11.70;;;2.80;;
67181;SDS011;54114;53.524;49.396;2022-09-27T14:55:11;12.48;;;1.40;;
67181;SDS011;54114;53.524;49.396;2022-09-27T14:57:48;3.40;;;1.30;;
67181;SDS011;54114;53.524;49.396;2022-09-27T15:00:28;2.67;;;0.80;;
67181;SDS011;54114;53.524;49.396;2022-09-27T15:03:00;5.18;;;1.00;;
67181;SDS011;54114;53.524;49.396;2022-09-27T15:05:30;4.12;;;1.40;;
67181;SDS011;54114;53.524;49.396;2022-09-27T15:07:59;2.10;;;1.25;;
67181;SDS011;54114;53.524;49.396;2022-09-27T15:10:32;4.18;;;1.17;;
67181;SDS011;54114;53.524;49.396;2022-09-27T15:13:00;8.55;;;1.70;;
67181;SDS011;54114;53.524;49.396;2022-09-27T15:15:31;4.20;;;1.33;;
67181;SDS011;54114;53.524;49.396;2022-09-27T15:18:01;8.82;;;2.62;;
67181;SDS011;54114;53.524;49.396;2022-09-27T15:20:30;4.50;;;2.00;;
67181;SDS011;54114;53.524;49.396;2022-09-27T15:22:59;11.07;;;2.80;;
67181;SDS011;54114;53.524;49.396;2022-09-27T15:30:37;12.63;;;2.40;;
67181;SDS011;54114;53.524;49.396;2022-09-27T15:33:19;6.80;;;2.92;;
67181;SDS011;54114;53.524;49.396;2022-09-27T15:35:59;7.80;;;4.50;;
67181;SDS011;54114;53.524;49.396;2022-09-27T15:41:11;5.95;;;3.00;;
67181;SDS011;54114;53.524;49.396;2022-09-27T15:43:44;7.53;;;3.47;;
67181;SDS011;54114;53.524;49.396;2022-09-27T15:51:43;5.18;;;2.75;;
67181;SDS011;54114;53.524;49.396;2022-09-27T15:54:22;7.30;;;3.08;;
67181;SDS011;54114;53.524;49.396;2022-09-27T15:56:52;4.35;;;2.25;;
67181;SDS011;54114;53.524;49.396;2022-09-27T15:59:21;7.85;;;2.70;;
67181;SDS011;54114;53.524;49.396;2022-09-27T16:01:53;6.28;;;2.67;;
67181;SDS011;54114;53.524;49.396;2022-09-27T16:04:23;13.40;;;2.85;;
67181;SDS011;54114;53.524;49.396;2022-09-27T16:06:51;7.20;;;3.00;;
67181;SDS011;54114;53.524;49.396;2022-09-27T16:09:20;7.43;;;2.47;;
67181;SDS011;54114;53.524;49.396;2022-09-27T16:11:47;10.90;;;3.45;;
67181;SDS011;54114;53.524;49.396;2022-09-27T16:14:15;10.25;;;3.50;;
67181;SDS011;54114;53.524;49.396;2022-09-27T16:16:44;20.60;;;9.07;;
67181;SDS011;54114;53.524;49.396;2022-09-27T16:19:13;14.05;;;4.50;;
67181;SDS011;54114;53.524;49.396;2022-09-27T16:21:40;20.73;;;5.43;;
67181;SDS011;54114;53.524;49.396;2022-09-27T16:24:08;6.97;;;2.70;;
67181;SDS011;54114;53.524;49.396;2022-09-27T16:26:36;13.95;;;5.95;;
67181;SDS011;54114;53.524;49.396;2022-09-27T16:29:03;9.60;;;3.45;;
67181;SDS011;54114;53.524;49.396;2022-09-27T16:31:35;22.13;;;2.72;;
67181;SDS011;54114;53.524;49.396;2022-09-27T16:34:02;7.72;;;2.60;;
67181;SDS011;54114;53.524;49.396;2022-09-27T16:36:28;8.82;;;2.50;;
67181;SDS011;54114;53.524;49.396;2022-09-27T16:38:55;6.65;;;2.67;;
67181;SDS011;54114;53.524;49.396;2022-09-27T16:41:22;13.88;;;3.50;;
67181;SDS011;54114;53.524;49.396;2022-09-27T16:43:49;15.55;;;4.45;;
67181;SDS011;54114;53.524;49.396;2022-09-27T16:46:16;8.98;;;3.30;;
67181;SDS011;54114;53.524;49.396;2022-09-27T16:48:46;15.38;;;3.75;;
67181;SDS011;54114;53.524;49.396;2022-09-27T16:51:17;6.72;;;2.22;;
67181;SDS011;54114;53.524;49.396;2022-09-27T16:54:04;10.85;;;2.53;;
67181;SDS011;54114;53.524;49.396;2022-09-27T16:56:33;7.50;;;2.67;;
67181;SDS011;54114;53.524;49.396;2022-09-27T16:59:01;9.23;;;2.80;;
67181;SDS011;54114;53.524;49.396;2022-09-27T17:01:30;6.82;;;2.50;;
67181;SDS011;54114;53.524;49.396;2022-09-27T17:03:58;8.75;;;3.33;;
67181;SDS011;54114;53.524;49.396;2022-09-27T17:06:25;8.50;;;3.58;;
67181;SDS011;54114;53.524;49.396;2022-09-27T17:09:01;9.38;;;3.03;;
67181;SDS011;54114;53.524;49.396;2022-09-27T17:11:29;16.55;;;3.60;;
67181;SDS011;54114;53.524;49.396;2022-09-27T17:13:56;7.47;;;2.75;;
67181;SDS011;54114;53.524;49.396;2022-09-27T17:16:22;12.40;;;3.10;;
67181;SDS011;54114;53.524;49.396;2022-09-27T17:18:50;15.15;;;5.78;;
67181;SDS011;54114;53.524;49.396;2022-09-27T17:21:16;8.98;;;3.45;;
67181;SDS011;54114;53.524;49.396;2022-09-27T17:23:43;7.20;;;3.47;;
67181;SDS011;54114;53.524;49.396;2022-09-27T17:28:45;9.10;;;3.58;;
67181;SDS011;54114;53.524;49.396;2022-09-27T17:31:13;12.88;;;4.60;;
67181;SDS011;54114;53.524;49.396;2022-09-27T17:33:43;12.85;;;4.60;;
67181;SDS011;54114;53.524;49.396;2022-09-27T17:36:13;7.00;;;3.72;;
67181;SDS011;54114;53.524;49.396;2022-09-27T17:38:43;8.35;;;3.40;;
67181;SDS011;54114;53.524;49.396;2022-09-27T17:41:12;9.18;;;3.10;;
67181;SDS011;54114;53.524;49.396;2022-09-27T17:43:42;13.93;;;4.30;;
67181;SDS011;54114;53.524;49.396;2022-09-27T17:46:17;4.45;;;2.72;;
67181;SDS011;54114;53.524;49.396;2022-09-27T17:48:46;5.62;;;2.70;;